Time;durP1;ratioP1;P1;durP2;ratioP2;P2;SDS_P1;SDS_P2;PMS_P1;PMS_P2;Temp;Humidity;BMP_temperature;BMP_pressure;BME280_temperature;BME280_humidity;BME280_pressure;Samples;Min_cycle;Max_cycle;Signal;HPM_P1;HPM_P2
2021/05/30 00:01:13;;;;;;;;;;;27.60;97.90;;;;;;1841718;77;20206;-91
2021/05/30 00:03:44;;;;;;;;;;;27.60;97.80;;;;;;1827945;77;20188;-92
2021/05/30 00:06:13;;;;;;;;;;;27.70;97.80;;;;;;1868055;76;20180;-91
2021/05/30 00:08:43;;;;;;;;;;;27.70;97.50;;;;;;1832769;77;20484;-91
2021/05/30 00:11:13;;;;;;;;;;;27.80;97.40;;;;;;1850130;77;20202;-92
2021/05/30 00:13:45;;;;;;;;;;;27.80;97.30;;;;;;1854422;77;20189;-92
2021/05/30 00:16:14;;;;;;;;;;;27.80;97.20;;;;;;1824805;79;20133;-91
2021/05/30 00:18:44;;;;;;;;;;;27.80;97.00;;;;;;1824915;79;20492;-91
2021/05/30 00:21:14;;;;;;;;;;;27.90;96.90;;;;;;1830704;77;20137;-87
2021/05/30 00:23:44;;;;;;;;;;;28.00;96.80;;;;;;1829692;77;20194;-88
2021/05/30 00:26:13;;;;;;;;;;;28.00;96.80;;;;;;1854063;76;20170;-88
2021/05/30 00:28:44;;;;;;;;;;;28.00;97.00;;;;;;1851744;76;20158;-86
2021/05/30 00:31:13;;;;;;;;;;;28.10;97.00;;;;;;1855716;77;20246;-86
2021/05/30 00:33:45;;;;;;;;;;;28.10;96.90;;;;;;1852151;77;20222;-86
2021/05/30 00:36:14;;;;;;;;;;;28.20;96.50;;;;;;1829941;77;20168;-88
2021/05/30 00:38:44;;;;;;;;;;;28.20;96.70;;;;;;1853123;77;20166;-88
2021/05/30 00:41:14;;;;;;;;;;;28.10;96.70;;;;;;1856979;77;20233;-85
2021/05/30 00:43:45;;;;;;;;;;;28.20;96.80;;;;;;1843230;77;20130;-86
2021/05/30 00:46:15;;;;;;;;;;;28.20;96.90;;;;;;1827352;77;20203;-88
2021/05/30 00:48:45;;;;;;;;;;;28.20;97.10;;;;;;1820087;79;20162;-83
2021/05/30 00:51:15;;;;;;;;;;;28.20;96.90;;;;;;1865279;76;20247;-82
2021/05/30 00:53:45;;;;;;;;;;;28.30;96.70;;;;;;1847626;77;20195;-84
2021/05/30 00:56:16;;;;;;;;;;;28.30;96.60;;;;;;1851645;77;20174;-83
2021/05/30 00:58:46;;;;;;;;;;;28.40;96.30;;;;;;1839108;77;20181;-83
2021/05/30 01:01:15;;;;;;;;;;;28.40;96.30;;;;;;1821471;78;20200;-84
2021/05/30 01:03:45;;;;;;;;;;;28.40;96.30;;;;;;1822160;79;20165;-84
2021/05/30 01:06:15;;;;;;;;;;;28.50;96.20;;;;;;1807170;79;20668;-85
2021/05/30 01:08:46;;;;;;;;;;;28.50;95.90;;;;;;1792935;79;20241;-85
2021/05/30 01:11:17;;;;;;;;;;;28.60;96.10;;;;;;1848321;76;20447;-84
2021/05/30 01:13:47;;;;;;;;;;;28.60;95.90;;;;;;1863978;76;20163;-85
2021/05/30 01:16:18;;;;;;;;;;;28.70;95.90;;;;;;1848494;77;20186;-83
2021/05/30 01:18:49;;;;;;;;;;;28.80;95.70;;;;;;1822949;79;20169;-81
2021/05/30 01:21:19;;;;;;;;;;;28.90;95.50;;;;;;1853896;77;20209;-79
2021/05/30 01:23:50;;;;;;;;;;;29.00;95.50;;;;;;1853699;77;20161;-81
2021/05/30 01:26:20;;;;;;;;;;;29.20;95.20;;;;;;1845450;77;20178;-84
2021/05/30 01:28:50;;;;;;;;;;;29.30;94.70;;;;;;1842980;77;20217;-82
2021/05/30 01:31:21;;;;;;;;;;;29.40;94.70;;;;;;1830941;77;20276;-82
2021/05/30 01:33:50;;;;;;;;;;;29.50;94.20;;;;;;1837370;77;20190;-83
2021/05/30 01:36:20;;;;;;;;;;;29.50;94.20;;;;;;1827149;77;20240;-81
2021/05/30 01:38:50;;;;;;;;;;;29.60;93.80;;;;;;1831564;78;20583;-84
2021/05/30 01:41:20;;;;;;;;;;;29.70;93.70;;;;;;1824621;78;20241;-83
2021/05/30 01:43:50;;;;;;;;;;;29.80;93.50;;;;;;1832727;78;20649;-82
2021/05/30 01:46:20;;;;;;;;;;;29.80;93.20;;;;;;1843667;78;20131;-81
2021/05/30 01:48:50;;;;;;;;;;;29.90;93.00;;;;;;1897384;75;20128;-82
2021/05/30 01:51:20;;;;;;;;;;;30.00;92.70;;;;;;1900037;75;20214;-81
2021/05/30 01:54:00;;;;;;;;;;;30.10;92.60;;;;;;1882954;76;20242;-80
2021/05/30 01:58:53;;;;;;;;;;;30.20;92.50;;;;;;1848840;77;20166;-76
2021/05/30 02:01:23;;;;;;;;;;;30.20;92.40;;;;;;1900375;75;20204;-76
2021/05/30 02:03:53;;;;;;;;;;;30.30;92.10;;;;;;1898506;75;20238;-77
2021/05/30 02:06:23;;;;;;;;;;;30.40;91.10;;;;;;1875263;75;20242;-76
2021/05/30 02:08:54;;;;;;;;;;;30.50;91.60;;;;;;1887265;75;20152;-82
2021/05/30 02:11:24;;;;;;;;;;;30.50;91.20;;;;;;1887775;75;20170;-79
2021/05/30 02:13:54;;;;;;;;;;;30.60;91.00;;;;;;1867453;75;20278;-78
2021/05/30 02:16:27;;;;;;;;;;;30.70;91.70;;;;;;1872436;75;20159;-78
2021/05/30 02:18:57;;;;;;;;;;;30.80;91.00;;;;;;1870583;75;20265;-80
2021/05/30 02:21:27;;;;;;;;;;;30.90;91.00;;;;;;1878002;75;20443;-78
2021/05/30 02:23:59;;;;;;;;;;;30.90;90.80;;;;;;1876864;75;20203;-80
2021/05/30 02:26:29;;;;;;;;;;;31.00;90.40;;;;;;1875122;75;20168;-80
2021/05/30 02:28:58;;;;;;;;;;;31.00;89.90;;;;;;1878165;75;20208;-81
2021/05/30 02:31:28;;;;;;;;;;;31.10;88.90;;;;;;1878983;76;20199;-80
2021/05/30 02:33:59;;;;;;;;;;;31.10;87.70;;;;;;1881645;75;20161;-81
2021/05/30 02:36:30;;;;;;;;;;;31.10;87.20;;;;;;1877155;75;20203;-80
2021/05/30 02:39:00;;;;;;;;;;;31.20;87.70;;;;;;1877867;75;20171;-81
2021/05/30 02:41:30;;;;;;;;;;;31.20;88.30;;;;;;1880871;75;20133;-80
2021/05/30 02:44:02;;;;;;;;;;;31.30;88.20;;;;;;1876572;75;20211;-81
2021/05/30 02:46:32;;;;;;;;;;;31.40;87.90;;;;;;1874906;75;20135;-81
2021/05/30 02:49:04;;;;;;;;;;;31.50;86.20;;;;;;1876143;76;20584;-81
2021/05/30 02:51:34;;;;;;;;;;;31.60;86.10;;;;;;1844854;76;20597;-80
2021/05/30 02:54:04;;;;;;;;;;;31.60;86.60;;;;;;1874569;76;20288;-81
2021/05/30 02:56:33;;;;;;;;;;;31.70;84.20;;;;;;1878356;76;20188;-81
2021/05/30 02:59:04;;;;;;;;;;;31.80;84.00;;;;;;1875323;75;20237;-77
2021/05/30 03:01:33;;;;;;;;;;;31.80;83.20;;;;;;1883137;75;20254;-78
2021/05/30 03:04:04;;;;;;;;;;;31.80;83.00;;;;;;1882822;76;20207;-78
2021/05/30 03:06:34;;;;;;;;;;;31.70;83.90;;;;;;1883222;75;20211;-78
2021/05/30 03:09:04;;;;;;;;;;;31.90;84.60;;;;;;1883179;76;20211;-77
2021/05/30 03:11:34;;;;;;;;;;;32.00;83.50;;;;;;1883156;76;20152;-79
2021/05/30 03:14:04;;;;;;;;;;;32.00;82.50;;;;;;1887037;75;20471;-77
2021/05/30 03:16:34;;;;;;;;;;;31.80;82.60;;;;;;1876179;75;20200;-77
2021/05/30 03:19:04;;;;;;;;;;;31.80;83.10;;;;;;1867276;75;20611;-77
2021/05/30 03:21:34;;;;;;;;;;;31.80;83.90;;;;;;1871911;75;20184;-79
2021/05/30 03:24:04;;;;;;;;;;;31.80;83.10;;;;;;1877147;75;20235;-79
2021/05/30 03:26:34;;;;;;;;;;;32.00;82.80;;;;;;1880659;75;20235;-77
2021/05/30 03:29:05;;;;;;;;;;;32.10;82.10;;;;;;1878255;75;20132;-77
2021/05/30 03:31:34;;;;;;;;;;;32.20;82.00;;;;;;1891799;74;20167;-77
2021/05/30 03:34:04;;;;;;;;;;;32.30;80.80;;;;;;1884449;74;20179;-77
2021/05/30 03:36:35;;;;;;;;;;;32.30;80.80;;;;;;1886471;74;20120;-77
2021/05/30 03:39:06;;;;;;;;;;;32.30;81.10;;;;;;1895269;74;20274;-77
2021/05/30 03:41:40;;;;;;;;;;;32.30;81.20;;;;;;1887604;74;20453;-77
2021/05/30 03:44:09;;;;;;;;;;;32.20;80.60;;;;;;1886436;74;20198;-77
2021/05/30 03:46:39;;;;;;;;;;;32.30;80.50;;;;;;1886975;76;20170;-78
2021/05/30 03:49:09;;;;;;;;;;;32.30;80.80;;;;;;1884871;74;20214;-78
2021/05/30 03:51:39;;;;;;;;;;;32.30;80.70;;;;;;1881947;76;20175;-78
2021/05/30 03:54:09;;;;;;;;;;;32.20;81.00;;;;;;1886039;74;20223;-78
2021/05/30 03:56:38;;;;;;;;;;;32.30;81.50;;;;;;1889620;74;20486;-78
2021/05/30 03:59:09;;;;;;;;;;;32.40;80.70;;;;;;1892192;75;20183;-79
2021/05/30 04:01:39;;;;;;;;;;;32.50;79.80;;;;;;1885095;74;20459;-79
2021/05/30 04:04:08;;;;;;;;;;;32.60;79.20;;;;;;1884658;74;20434;-79
2021/05/30 04:06:38;;;;;;;;;;;32.80;77.00;;;;;;1892615;74;20196;-78
2021/05/30 04:09:08;;;;;;;;;;;32.80;77.50;;;;;;1892617;74;20140;-79
2021/05/30 04:11:37;;;;;;;;;;;32.80;78.40;;;;;;1875135;74;20277;-79
2021/05/30 04:14:07;;;;;;;;;;;32.90;79.00;;;;;;1887992;74;20192;-79
2021/05/30 04:16:37;;;;;;;;;;;32.90;78.50;;;;;;1881936;74;20247;-79
2021/05/30 04:19:07;;;;;;;;;;;33.00;78.60;;;;;;1891827;74;20604;-79
2021/05/30 04:21:37;;;;;;;;;;;33.00;77.80;;;;;;1885928;74;20242;-79
2021/05/30 04:24:07;;;;;;;;;;;32.90;77.60;;;;;;1884689;74;20210;-80
2021/05/30 04:26:37;;;;;;;;;;;32.80;78.20;;;;;;1859870;76;20179;-78
2021/05/30 04:29:07;;;;;;;;;;;32.60;78.60;;;;;;1810957;78;20232;-79
2021/05/30 04:31:37;;;;;;;;;;;32.60;78.60;;;;;;1814257;77;20203;-79
2021/05/30 04:34:07;;;;;;;;;;;32.50;79.50;;;;;;1847644;76;20135;-78
2021/05/30 04:36:38;;;;;;;;;;;32.40;79.70;;;;;;1850425;77;20176;-78
2021/05/30 04:39:08;;;;;;;;;;;32.40;78.70;;;;;;1825675;77;20634;-79
2021/05/30 04:41:38;;;;;;;;;;;32.60;78.60;;;;;;1851195;76;20215;-78
2021/05/30 04:44:08;;;;;;;;;;;32.70;79.20;;;;;;1845168;76;20201;-78
2021/05/30 04:46:38;;;;;;;;;;;32.80;79.10;;;;;;1832810;76;20174;-78
2021/05/30 04:49:09;;;;;;;;;;;32.80;78.30;;;;;;1817616;77;20200;-78
2021/05/30 04:51:38;;;;;;;;;;;32.80;78.60;;;;;;1818628;77;20168;-78
2021/05/30 04:54:08;;;;;;;;;;;32.70;78.10;;;;;;1828565;78;20206;-79
2021/05/30 04:56:38;;;;;;;;;;;32.60;78.40;;;;;;1885359;76;20151;-80
2021/05/30 04:59:08;;;;;;;;;;;32.50;79.60;;;;;;1882548;76;20179;-78
2021/05/30 05:01:39;;;;;;;;;;;32.60;79.50;;;;;;1884683;75;20220;-80
2021/05/30 05:04:09;;;;;;;;;;;32.60;79.60;;;;;;1855135;76;20203;-83
2021/05/30 05:06:39;;;;;;;;;;;32.80;78.20;;;;;;1888226;75;20185;-80
2021/05/30 05:09:09;;;;;;;;;;;33.00;78.90;;;;;;1883319;76;20179;-81
2021/05/30 05:11:39;;;;;;;;;;;33.00;77.10;;;;;;1877851;75;20183;-79
2021/05/30 05:14:09;;;;;;;;;;;32.90;76.90;;;;;;1894086;74;20450;-80
2021/05/30 05:16:39;;;;;;;;;;;32.90;78.10;;;;;;1889273;74;20498;-80
2021/05/30 05:19:12;;;;;;;;;;;33.00;78.50;;;;;;1888159;74;20191;-81
2021/05/30 05:21:42;;;;;;;;;;;33.10;78.10;;;;;;1894916;76;20148;-80
2021/05/30 05:24:12;;;;;;;;;;;33.30;77.30;;;;;;1890302;74;20250;-79
2021/05/30 05:26:42;;;;;;;;;;;33.40;75.90;;;;;;1890626;74;20228;-79
2021/05/30 05:29:12;;;;;;;;;;;33.50;75.10;;;;;;1891935;76;20191;-78
2021/05/30 05:31:42;;;;;;;;;;;33.50;75.00;;;;;;1871834;74;20287;-79
2021/05/30 05:34:12;;;;;;;;;;;33.60;75.40;;;;;;1861292;75;20204;-78
2021/05/30 05:36:42;;;;;;;;;;;33.60;74.90;;;;;;1862205;75;20211;-77
2021/05/30 05:39:12;;;;;;;;;;;33.50;75.80;;;;;;1865154;76;20499;-79
2021/05/30 05:41:42;;;;;;;;;;;33.40;75.60;;;;;;1866111;75;20241;-78
2021/05/30 05:44:12;;;;;;;;;;;33.40;76.30;;;;;;1854800;75;20777;-79
2021/05/30 05:46:41;;;;;;;;;;;33.50;74.90;;;;;;1857026;76;20231;-79
2021/05/30 05:49:11;;;;;;;;;;;33.60;74.30;;;;;;1864637;75;20444;-78
2021/05/30 05:51:41;;;;;;;;;;;33.60;74.10;;;;;;1859110;76;20180;-78
2021/05/30 05:54:11;;;;;;;;;;;33.70;73.40;;;;;;1857174;75;20184;-78
2021/05/30 05:56:41;;;;;;;;;;;33.60;73.60;;;;;;1869214;75;20208;-77
2021/05/30 05:59:12;;;;;;;;;;;33.60;74.50;;;;;;1867192;75;20231;-77
2021/05/30 06:01:45;;;;;;;;;;;33.60;74.20;;;;;;1863775;75;20149;-78
2021/05/30 06:04:36;;;;;;;;;;;33.60;75.30;;;;;;1857731;75;20435;-77
2021/05/30 06:07:06;;;;;;;;;;;33.70;74.60;;;;;;1869842;75;20235;-77
2021/05/30 06:09:36;;;;;;;;;;;33.80;73.80;;;;;;1865952;75;20250;-78
2021/05/30 06:12:07;;;;;;;;;;;33.90;73.60;;;;;;1857337;76;20410;-77
2021/05/30 06:14:37;;;;;;;;;;;33.90;72.90;;;;;;1864456;76;20198;-77
2021/05/30 06:17:07;;;;;;;;;;;33.90;72.30;;;;;;1869629;75;20152;-77
2021/05/30 06:19:37;;;;;;;;;;;33.90;72.50;;;;;;1867885;77;20251;-76
2021/05/30 06:22:07;;;;;;;;;;;33.90;70.70;;;;;;1870734;75;20204;-77
2021/05/30 06:24:37;;;;;;;;;;;33.90;72.30;;;;;;1867386;75;20259;-77
2021/05/30 06:27:07;;;;;;;;;;;33.90;72.30;;;;;;1872468;75;20581;-77
2021/05/30 06:29:38;;;;;;;;;;;33.80;70.30;;;;;;1880037;75;20117;-77
2021/05/30 06:32:08;;;;;;;;;;;33.90;71.80;;;;;;1863800;74;20166;-79
2021/05/30 06:34:38;;;;;;;;;;;33.90;71.00;;;;;;1853782;76;20233;-78
2021/05/30 06:37:07;;;;;;;;;;;34.00;71.50;;;;;;1863639;76;20158;-78
2021/05/30 06:39:37;;;;;;;;;;;34.00;71.30;;;;;;1819654;78;20171;-80
2021/05/30 06:42:07;;;;;;;;;;;34.10;70.30;;;;;;1859559;76;20150;-82
2021/05/30 06:44:37;;;;;;;;;;;34.10;70.30;;;;;;1812514;78;20170;-80
2021/05/30 06:47:07;;;;;;;;;;;34.00;70.90;;;;;;1791231;79;20216;-79
2021/05/30 06:49:38;;;;;;;;;;;33.90;71.50;;;;;;1861447;76;20424;-80
2021/05/30 06:52:08;;;;;;;;;;;33.80;70.60;;;;;;1835092;76;20280;-79
2021/05/30 06:54:37;;;;;;;;;;;33.80;71.00;;;;;;1863145;76;20183;-78
2021/05/30 06:57:10;;;;;;;;;;;33.90;69.80;;;;;;1854655;76;20175;-78
2021/05/30 06:59:45;;;;;;;;;;;33.80;69.40;;;;;;1814322;78;20171;-79
2021/05/30 07:02:13;;;;;;;;;;;33.90;70.40;;;;;;1824730;77;20204;-79
2021/05/30 07:04:43;;;;;;;;;;;33.90;69.40;;;;;;1826956;77;20118;-81
2021/05/30 07:07:13;;;;;;;;;;;33.90;68.70;;;;;;1797603;78;20249;-77
2021/05/30 07:09:43;;;;;;;;;;;34.00;69.20;;;;;;1817599;77;20169;-76
2021/05/30 07:12:13;;;;;;;;;;;34.00;67.50;;;;;;1815435;78;20245;-77
2021/05/30 07:14:47;;;;;;;;;;;34.00;68.10;;;;;;1822654;77;20590;-80
2021/05/30 07:17:16;;;;;;;;;;;34.10;67.50;;;;;;1773301;79;20165;-79
2021/05/30 07:19:48;;;;;;;;;;;34.00;69.10;;;;;;1768224;80;20240;-77
2021/05/30 07:22:17;;;;;;;;;;;34.10;69.50;;;;;;1825421;77;20240;-79
2021/05/30 07:24:47;;;;;;;;;;;34.10;69.60;;;;;;1825593;77;20219;-79
2021/05/30 07:27:17;;;;;;;;;;;34.10;69.30;;;;;;1815778;78;20201;-80
2021/05/30 07:29:47;;;;;;;;;;;34.10;68.90;;;;;;1864804;76;20588;-80
2021/05/30 07:32:16;;;;;;;;;;;34.10;68.30;;;;;;1832203;76;20164;-80
2021/05/30 07:34:46;;;;;;;;;;;34.20;67.90;;;;;;1836404;77;20224;-80
2021/05/30 07:37:15;;;;;;;;;;;34.20;68.30;;;;;;1840638;77;20174;-81
2021/05/30 07:39:45;;;;;;;;;;;34.20;68.40;;;;;;1845801;77;20162;-81
2021/05/30 07:42:15;;;;;;;;;;;34.30;68.70;;;;;;1837548;77;20163;-81
2021/05/30 07:44:44;;;;;;;;;;;34.20;68.20;;;;;;1832683;77;20294;-81
2021/05/30 07:47:14;;;;;;;;;;;34.20;69.20;;;;;;1786377;80;20468;-81
2021/05/30 07:49:44;;;;;;;;;;;34.30;67.90;;;;;;1783296;80;20148;-79
2021/05/30 07:52:14;;;;;;;;;;;34.20;68.00;;;;;;1792469;80;20127;-78
2021/05/30 07:54:44;;;;;;;;;;;34.20;67.80;;;;;;1775265;80;20177;-78
2021/05/30 07:57:14;;;;;;;;;;;34.10;68.70;;;;;;1778484;80;20212;-76
2021/05/30 07:59:44;;;;;;;;;;;33.90;68.60;;;;;;1808458;78;20181;-78
2021/05/30 08:02:13;;;;;;;;;;;33.80;69.40;;;;;;1785770;80;20414;-78
2021/05/30 08:04:45;;;;;;;;;;;33.80;69.90;;;;;;1773601;80;20524;-78
2021/05/30 08:07:15;;;;;;;;;;;33.70;69.40;;;;;;1767378;81;20249;-78
2021/05/30 08:09:44;;;;;;;;;;;33.60;70.10;;;;;;1829738;77;20212;-80
2021/05/30 08:12:15;;;;;;;;;;;33.50;70.20;;;;;;1820434;78;20463;-80
2021/05/30 08:14:45;;;;;;;;;;;33.50;70.60;;;;;;1848870;77;20161;-78
2021/05/30 08:17:15;;;;;;;;;;;33.40;71.30;;;;;;1830243;77;20610;-78
2021/05/30 08:19:45;;;;;;;;;;;33.40;72.00;;;;;;1839774;78;20611;-81
2021/05/30 08:22:15;;;;;;;;;;;33.50;72.30;;;;;;1830578;77;20170;-78
2021/05/30 08:24:47;;;;;;;;;;;33.60;72.30;;;;;;1841886;77;20193;-82
2021/05/30 08:27:16;;;;;;;;;;;33.70;72.00;;;;;;1830459;78;20150;-79
2021/05/30 08:29:46;;;;;;;;;;;33.80;71.10;;;;;;1830895;77;20254;-75
2021/05/30 08:32:16;;;;;;;;;;;33.80;70.70;;;;;;1863086;75;20161;-76
2021/05/30 08:34:46;;;;;;;;;;;33.80;70.90;;;;;;1882070;75;20253;-78
2021/05/30 08:37:18;;;;;;;;;;;33.90;71.20;;;;;;1880025;75;20194;-76
2021/05/30 08:39:48;;;;;;;;;;;33.90;70.60;;;;;;1874040;75;20184;-77
2021/05/30 08:42:19;;;;;;;;;;;33.90;71.00;;;;;;1874668;75;20187;-81
2021/05/30 08:44:50;;;;;;;;;;;33.90;71.30;;;;;;1831392;77;20147;-80
2021/05/30 08:47:21;;;;;;;;;;;33.90;70.90;;;;;;1788471;78;20142;-76
2021/05/30 08:49:51;;;;;;;;;;;33.90;70.70;;;;;;1779331;80;20236;-78
2021/05/30 08:52:21;;;;;;;;;;;33.90;70.20;;;;;;1796610;79;20217;-78
2021/05/30 08:54:51;;;;;;;;;;;33.90;70.50;;;;;;1804246;79;20469;-78
2021/05/30 08:57:21;;;;;;;;;;;33.80;70.80;;;;;;1825009;79;20234;-78
2021/05/30 08:59:52;;;;;;;;;;;33.80;70.80;;;;;;1817417;77;20226;-78
2021/05/30 09:02:22;;;;;;;;;;;33.80;71.20;;;;;;1810819;77;20239;-78
2021/05/30 09:04:53;;;;;;;;;;;33.70;71.00;;;;;;1804325;79;20186;-78
2021/05/30 09:07:24;;;;;;;;;;;33.60;72.00;;;;;;1812994;79;20231;-78
2021/05/30 09:09:53;;;;;;;;;;;33.60;70.20;;;;;;1790514;79;20155;-78
2021/05/30 09:12:36;;;;;;;;;;;33.60;70.50;;;;;;1806367;79;20232;-78
2021/05/30 09:14:57;;;;;;;;;;;33.60;70.90;;;;;;1796815;78;20222;-77
2021/05/30 09:17:27;;;;;;;;;;;33.60;71.00;;;;;;1790731;78;20180;-79
2021/05/30 09:20:01;;;;;;;;;;;33.60;70.70;;;;;;1873223;75;20535;-78
2021/05/30 09:22:31;;;;;;;;;;;33.60;71.10;;;;;;1873955;76;20187;-80
2021/05/30 09:25:02;;;;;;;;;;;33.50;70.10;;;;;;1875422;75;20302;-79
2021/05/30 09:27:34;;;;;;;;;;;33.50;70.20;;;;;;1882373;75;20180;-80
2021/05/30 09:30:05;;;;;;;;;;;33.50;71.20;;;;;;1880402;75;20219;-78
2021/05/30 09:32:36;;;;;;;;;;;33.50;71.80;;;;;;1879896;74;20526;-76
2021/05/30 09:35:07;;;;;;;;;;;33.50;72.50;;;;;;1888590;74;20191;-77
2021/05/30 09:37:38;;;;;;;;;;;33.50;72.40;;;;;;1892347;74;20501;-78
2021/05/30 09:40:08;;;;;;;;;;;33.50;72.40;;;;;;1889558;74;20495;-77
2021/05/30 09:42:38;;;;;;;;;;;33.50;72.30;;;;;;1881775;74;20383;-78
2021/05/30 09:45:09;;;;;;;;;;;33.50;71.90;;;;;;1893838;74;20392;-78
2021/05/30 09:47:46;;;;;;;;;;;33.50;70.60;;;;;;1887439;74;20182;-78
2021/05/30 09:50:12;;;;;;;;;;;33.50;70.30;;;;;;1892300;74;20213;-78
2021/05/30 09:52:43;;;;;;;;;;;33.40;70.50;;;;;;1893637;74;20226;-78
2021/05/30 09:55:15;;;;;;;;;;;33.40;71.30;;;;;;1890472;74;20504;-75
2021/05/30 09:57:45;;;;;;;;;;;33.30;72.60;;;;;;1899320;74;20375;-77
2021/05/30 10:00:16;;;;;;;;;;;33.30;72.90;;;;;;1883662;74;20622;-79
2021/05/30 10:02:46;;;;;;;;;;;33.30;72.70;;;;;;1900329;74;20235;-78
2021/05/30 10:05:16;;;;;;;;;;;33.30;73.00;;;;;;1902740;74;20193;-77
2021/05/30 10:07:46;;;;;;;;;;;33.30;73.30;;;;;;1884764;74;20443;-80
2021/05/30 10:10:16;;;;;;;;;;;33.30;73.40;;;;;;1875321;76;20289;-80
2021/05/30 10:12:47;;;;;;;;;;;33.30;73.40;;;;;;1916624;74;20251;-81
2021/05/30 10:15:17;;;;;;;;;;;33.20;73.30;;;;;;1900359;75;20168;-80
2021/05/30 10:17:47;;;;;;;;;;;33.20;72.90;;;;;;1893204;74;20449;-80
2021/05/30 10:20:19;;;;;;;;;;;33.20;73.10;;;;;;1876591;74;20456;-81
2021/05/30 10:22:51;;;;;;;;;;;33.20;73.10;;;;;;1886044;74;20191;-79
2021/05/30 10:25:22;;;;;;;;;;;33.20;73.00;;;;;;1844948;78;20145;-80
2021/05/30 10:27:53;;;;;;;;;;;33.10;74.40;;;;;;1904268;74;20226;-79
2021/05/30 10:30:23;;;;;;;;;;;33.10;71.80;;;;;;1856012;76;20153;-81
2021/05/30 10:32:54;;;;;;;;;;;33.10;71.80;;;;;;1865860;76;20531;-80
2021/05/30 10:35:25;;;;;;;;;;;33.10;71.90;;;;;;1821951;77;20188;-80
2021/05/30 10:37:57;;;;;;;;;;;33.10;71.10;;;;;;1845444;76;20134;-81
2021/05/30 10:40:28;;;;;;;;;;;33.00;71.50;;;;;;1858978;76;20186;-82
2021/05/30 10:43:00;;;;;;;;;;;33.00;72.20;;;;;;1837249;77;20125;-80
2021/05/30 10:45:31;;;;;;;;;;;33.00;72.60;;;;;;1854439;76;20193;-79
2021/05/30 10:48:02;;;;;;;;;;;32.90;73.10;;;;;;1854221;76;20217;-79
2021/05/30 10:50:33;;;;;;;;;;;32.90;73.30;;;;;;1854701;77;20212;-78
2021/05/30 10:53:05;;;;;;;;;;;32.90;74.10;;;;;;1855033;76;20209;-78
2021/05/30 10:55:35;;;;;;;;;;;32.90;73.90;;;;;;1854067;77;20122;-78
2021/05/30 10:58:06;;;;;;;;;;;32.90;74.20;;;;;;1850635;76;20206;-78
2021/05/30 11:00:37;;;;;;;;;;;32.90;73.70;;;;;;1855061;76;20170;-78
2021/05/30 11:03:10;;;;;;;;;;;32.90;73.90;;;;;;1841924;77;20127;-79
2021/05/30 11:05:41;;;;;;;;;;;32.80;73.80;;;;;;1824136;79;20212;-78
2021/05/30 11:08:12;;;;;;;;;;;32.80;73.90;;;;;;1823374;79;20232;-78
2021/05/30 11:10:44;;;;;;;;;;;32.80;73.90;;;;;;1822545;77;20196;-77
2021/05/30 11:13:16;;;;;;;;;;;32.80;73.90;;;;;;1854088;77;20170;-79
2021/05/30 11:15:45;;;;;;;;;;;32.80;74.10;;;;;;1854106;77;20214;-79
2021/05/30 11:18:17;;;;;;;;;;;32.80;74.40;;;;;;1853239;77;20221;-79
2021/05/30 11:20:48;;;;;;;;;;;32.80;74.40;;;;;;1842240;76;20446;-79
2021/05/30 11:23:19;;;;;;;;;;;32.70;74.50;;;;;;1852942;77;20205;-79
2021/05/30 11:25:50;;;;;;;;;;;32.70;74.60;;;;;;1853777;76;20526;-79
2021/05/30 11:28:21;;;;;;;;;;;32.70;74.90;;;;;;1848514;76;20231;-79
2021/05/30 11:30:53;;;;;;;;;;;32.60;74.90;;;;;;1840080;77;20232;-79
2021/05/30 11:33:25;;;;;;;;;;;32.70;75.30;;;;;;1813392;77;20126;-80
2021/05/30 11:35:56;;;;;;;;;;;32.70;75.40;;;;;;1860298;76;20205;-79
2021/05/30 11:38:27;;;;;;;;;;;32.60;75.70;;;;;;1860976;76;20449;-79
2021/05/30 11:40:58;;;;;;;;;;;32.60;76.00;;;;;;1857947;76;20231;-81
2021/05/30 11:43:30;;;;;;;;;;;32.60;76.40;;;;;;1852858;76;20208;-79
2021/05/30 11:46:01;;;;;;;;;;;32.60;76.40;;;;;;1859463;76;20253;-78
2021/05/30 11:48:35;;;;;;;;;;;32.50;77.50;;;;;;1864215;76;20224;-79
2021/05/30 11:51:09;;;;;;;;;;;32.50;76.80;;;;;;1861713;76;20222;-92
2021/05/30 11:53:35;;;;;;;;;;;32.50;76.60;;;;;;1853091;76;20166;-90
2021/05/30 11:56:06;;;;;;;;;;;32.50;76.30;;;;;;1862992;76;20242;-91
2021/05/30 11:58:37;;;;;;;;;;;32.50;76.10;;;;;;1861350;76;20427;-90
2021/05/30 12:01:07;;;;;;;;;;;32.50;76.50;;;;;;1868112;76;20356;-92
2021/05/30 12:03:40;;;;;;;;;;;32.50;76.40;;;;;;1868543;76;20299;-92
2021/05/30 12:06:09;;;;;;;;;;;32.50;76.60;;;;;;1861234;76;20864;-92
2021/05/30 12:08:40;;;;;;;;;;;32.50;76.00;;;;;;1864942;76;20143;-93
2021/05/30 12:11:13;;;;;;;;;;;32.40;75.90;;;;;;1857288;76;20301;-91
2021/05/30 12:13:42;;;;;;;;;;;32.40;75.90;;;;;;1847324;76;20173;-90
2021/05/30 12:16:13;;;;;;;;;;;32.30;75.90;;;;;;1845017;76;20297;-92
2021/05/30 12:18:44;;;;;;;;;;;32.30;76.20;;;;;;1845872;76;20218;-91
2021/05/30 12:21:15;;;;;;;;;;;32.30;76.10;;;;;;1845688;76;20285;-92
2021/05/30 12:23:45;;;;;;;;;;;32.30;76.20;;;;;;1817773;76;20241;-92
2021/05/30 12:26:15;;;;;;;;;;;32.30;76.40;;;;;;1863470;76;20186;-93
2021/05/30 12:28:46;;;;;;;;;;;32.30;76.50;;;;;;1853085;76;20233;-93
2021/05/30 12:31:16;;;;;;;;;;;32.20;76.40;;;;;;1848972;76;20174;-90
2021/05/30 12:33:48;;;;;;;;;;;32.20;76.50;;;;;;1860461;76;20234;-93
2021/05/30 12:36:24;;;;;;;;;;;32.30;76.60;;;;;;1845050;76;20130;-91
2021/05/30 12:38:55;;;;;;;;;;;32.20;76.60;;;;;;1828110;77;20149;-92
2021/05/30 12:41:26;;;;;;;;;;;32.30;76.80;;;;;;1837050;76;20288;-88
2021/05/30 12:43:57;;;;;;;;;;;32.20;76.80;;;;;;1833160;77;20249;-93
2021/05/30 12:46:28;;;;;;;;;;;32.20;76.80;;;;;;1838281;77;20194;-91
2021/05/30 12:49:02;;;;;;;;;;;32.20;76.90;;;;;;1829426;77;20237;-89
2021/05/30 12:51:30;;;;;;;;;;;32.10;76.60;;;;;;1832561;77;20258;-91
2021/05/30 12:54:05;;;;;;;;;;;32.10;76.70;;;;;;1833829;77;20271;-92
2021/05/30 12:56:32;;;;;;;;;;;32.10;76.70;;;;;;1830565;77;20171;-90
2021/05/30 12:59:06;;;;;;;;;;;32.10;76.80;;;;;;1840718;76;20187;-92
2021/05/30 13:01:37;;;;;;;;;;;32.10;76.90;;;;;;1844074;76;20212;-89
2021/05/30 13:04:08;;;;;;;;;;;32.10;76.90;;;;;;1840794;76;20204;-89
2021/05/30 13:06:38;;;;;;;;;;;32.10;77.00;;;;;;1838810;76;20252;-92
2021/05/30 13:09:07;;;;;;;;;;;32.10;77.30;;;;;;1843694;76;20600;-90
2021/05/30 13:11:40;;;;;;;;;;;32.10;77.30;;;;;;1844361;76;20225;-87
2021/05/30 13:14:10;;;;;;;;;;;32.10;77.50;;;;;;1839221;77;20273;-92
2021/05/30 13:16:40;;;;;;;;;;;32.00;77.30;;;;;;1834302;77;20486;-89
2021/05/30 13:19:12;;;;;;;;;;;32.00;77.50;;;;;;1844016;76;20233;-90
2021/05/30 13:21:45;;;;;;;;;;;32.00;77.50;;;;;;1836704;76;20522;-91
2021/05/30 13:24:15;;;;;;;;;;;32.00;77.50;;;;;;1844032;76;20256;-91
2021/05/30 13:26:46;;;;;;;;;;;32.10;77.50;;;;;;1842213;77;20245;-92
2021/05/30 13:29:34;;;;;;;;;;;32.00;77.40;;;;;;1761110;79;20265;-92
2021/05/30 13:32:09;;;;;;;;;;;32.00;77.60;;;;;;1837461;76;20233;-91
2021/05/30 13:34:39;;;;;;;;;;;32.00;77.60;;;;;;1847189;75;20136;-91
2021/05/30 13:37:13;;;;;;;;;;;32.00;77.80;;;;;;1878740;75;20301;-92
2021/05/30 13:39:40;;;;;;;;;;;32.00;77.80;;;;;;1874678;75;20780;-93
2021/05/30 13:42:14;;;;;;;;;;;32.00;78.00;;;;;;1834895;75;20183;-91
2021/05/30 13:44:51;;;;;;;;;;;32.00;78.60;;;;;;1875237;75;20223;-91
2021/05/30 13:47:27;;;;;;;;;;;32.00;78.90;;;;;;1876303;75;20144;-92
2021/05/30 13:49:55;;;;;;;;;;;31.90;79.00;;;;;;1875201;75;20159;-90
2021/05/30 13:53:06;;;;;;;;;;;31.90;79.60;;;;;;1877910;75;20159;-92
2021/05/30 13:55:58;;;;;;;;;;;31.90;79.70;;;;;;1869480;76;20179;-92
2021/05/30 13:58:30;;;;;;;;;;;31.90;80.40;;;;;;1872398;76;20222;-91
2021/05/30 14:01:00;;;;;;;;;;;31.80;80.40;;;;;;1878932;75;20208;-92
2021/05/30 14:03:38;;;;;;;;;;;31.80;80.70;;;;;;1872443;75;20156;-92
2021/05/30 14:06:08;;;;;;;;;;;31.70;80.90;;;;;;1870675;75;20210;-93
2021/05/30 14:08:38;;;;;;;;;;;31.70;81.40;;;;;;1873516;76;20206;-89
2021/05/30 14:11:17;;;;;;;;;;;31.70;81.50;;;;;;1799152;78;20196;-88
2021/05/30 14:17:02;;;;;;;;;;;31.70;81.20;;;;;;1727560;81;20245;-92
2021/05/30 14:19:38;;;;;;;;;;;31.70;82.00;;;;;;1702369;83;20271;-91
2021/05/30 14:22:08;;;;;;;;;;;31.60;81.90;;;;;;1739006;81;20283;-91
2021/05/30 14:24:38;;;;;;;;;;;31.60;81.50;;;;;;1701716;83;20230;-90
2021/05/30 14:27:08;;;;;;;;;;;31.60;81.60;;;;;;1733668;81;20635;-88
2021/05/30 14:29:38;;;;;;;;;;;31.60;81.80;;;;;;1700000;83;20200;-91
2021/05/30 14:32:12;;;;;;;;;;;31.60;82.20;;;;;;1733916;81;20198;-91
2021/05/30 14:37:53;;;;;;;;;;;31.60;82.60;;;;;;1714058;82;20182;-91
2021/05/30 14:40:24;;;;;;;;;;;31.50;82.40;;;;;;1734081;81;20441;-91
2021/05/30 14:42:54;;;;;;;;;;;31.50;83.00;;;;;;1823897;76;20738;-89
2021/05/30 14:45:39;;;;;;;;;;;31.50;83.20;;;;;;1842617;76;20253;-91